createdAt,value
2023-02-06T00:01:54.895Z,99788.66
2023-02-06T00:03:56.238Z,99785.22
2023-02-06T00:05:57.651Z,99794.63
2023-02-06T00:07:59.027Z,99788.66
2023-02-06T00:10:00.341Z,99783.53
2023-02-06T00:12:02.262Z,99783.53
2023-02-06T00:14:03.597Z,99772.47
2023-02-06T00:16:04.935Z,99769.91
2023-02-06T00:18:06.280Z,99764.81
2023-02-06T00:20:07.575Z,99766.53
2023-02-06T00:22:10.320Z,99753.75
2023-02-06T00:24:11.678Z,99755.47
2023-02-06T00:26:12.979Z,99756.31
2023-02-06T00:28:14.430Z,99758.91
2023-02-06T00:30:15.754Z,99759.75
2023-02-06T00:32:17.084Z,99758.91
2023-02-06T00:34:18.440Z,99759.81
2023-02-06T00:36:19.736Z,99756.41
2023-02-06T00:38:21.069Z,99772.59
2023-02-06T00:40:22.391Z,99778.56
2023-02-06T00:42:23.685Z,99773.47
2023-02-06T00:44:24.979Z,99779.44
2023-02-06T00:46:26.383Z,99770.03
2023-02-06T00:48:27.729Z,99778.59
2023-02-06T00:50:29.057Z,99781.06
2023-02-06T00:52:30.398Z,99784.47
2023-02-06T00:54:31.683Z,99790.44
2023-02-06T00:56:33.047Z,99788.72
2023-02-06T00:58:34.411Z,99794.69
2023-02-06T01:00:35.717Z,99795.56
2023-02-06T01:02:37.082Z,99787.00
2023-02-06T01:04:38.373Z,99786.16
2023-02-06T01:06:39.679Z,99790.41
2023-02-06T01:08:41.061Z,99773.34
2023-02-06T01:10:42.513Z,99767.38
2023-02-06T01:12:43.820Z,99767.38
2023-02-06T01:14:45.168Z,99758.84
2023-02-06T01:16:46.484Z,99763.09
2023-02-06T01:18:47.800Z,99772.50
2023-02-06T01:20:49.136Z,99766.50
2023-02-06T01:22:50.440Z,99761.38
2023-02-06T01:24:51.763Z,99761.41
2023-02-06T01:26:53.077Z,99769.06
2023-02-06T01:28:54.466Z,99762.25
2023-02-06T01:30:55.796Z,99763.09
2023-02-06T01:32:57.148Z,99763.94
2023-02-06T01:34:58.435Z,99763.09
2023-02-06T01:36:59.727Z,99766.50
2023-02-06T01:39:01.091Z,99770.78
2023-02-06T01:41:02.391Z,99777.59
2023-02-06T01:43:03.690Z,99769.09
2023-02-06T01:45:04.978Z,99777.63
2023-02-06T01:47:06.268Z,99775.94
2023-02-06T01:49:07.582Z,99775.97
2023-02-06T01:51:08.920Z,99771.75
2023-02-06T01:53:10.260Z,99773.47
2023-02-06T01:55:11.559Z,99768.34
2023-02-06T01:57:12.889Z,99760.69
2023-02-06T01:59:14.251Z,99760.66
2023-02-06T02:01:15.566Z,99760.69
2023-02-06T02:03:16.858Z,99756.41
2023-02-06T02:05:18.231Z,99756.41
2023-02-06T02:07:19.571Z,99752.94
2023-02-06T02:09:20.945Z,99752.94
2023-02-06T02:11:22.257Z,99753.78
2023-02-06T02:13:23.593Z,99751.22
2023-02-06T02:15:24.937Z,99749.50
2023-02-06T02:17:26.230Z,99751.19
2023-02-06T02:19:27.538Z,99758.00
2023-02-06T02:21:28.880Z,99746.94
2023-02-06T02:23:30.185Z,99752.91
2023-02-06T02:25:31.486Z,99756.31
2023-02-06T02:27:32.819Z,99754.59
2023-02-06T02:29:34.117Z,99753.75
2023-02-06T02:31:35.471Z,99749.47
2023-02-06T02:33:36.801Z,99742.63
2023-02-06T02:35:38.350Z,99740.94
2023-02-06T02:37:39.781Z,99746.91
2023-02-06T02:39:41.071Z,99729.00
2023-02-06T02:41:42.361Z,99737.53
2023-02-06T02:43:43.979Z,99729.00
2023-02-06T02:45:45.281Z,99722.19
2023-02-06T02:47:46.579Z,99724.75
2023-02-06T02:49:47.871Z,99722.19
2023-02-06T02:51:49.257Z,99715.34
2023-02-06T02:53:50.554Z,99702.59
2023-02-06T02:55:51.851Z,99703.47
2023-02-06T02:57:53.152Z,99700.88
2023-02-06T02:59:54.453Z,99703.44
2023-02-06T03:01:56.113Z,99694.94
2023-02-06T03:03:57.568Z,99689.84
2023-02-06T03:05:58.879Z,99689.03
2023-02-06T03:08:00.174Z,99681.34
2023-02-06T03:10:02.254Z,99681.34
2023-02-06T03:12:03.551Z,99681.34
2023-02-06T03:14:04.914Z,99683.03
2023-02-06T03:16:06.233Z,99681.34
2023-02-06T03:18:08.254Z,99676.22
2023-02-06T03:20:09.760Z,99679.63
2023-02-06T03:22:11.109Z,99683.03
2023-02-06T03:24:12.398Z,99682.16
2023-02-06T03:26:13.725Z,99683.84
2023-02-06T03:28:15.116Z,99681.28
2023-02-06T03:30:16.536Z,99681.25
2023-02-06T03:32:17.862Z,99675.28
2023-02-06T03:34:19.171Z,99686.38
2023-02-06T03:36:20.696Z,99682.09
2023-02-06T03:38:24.702Z,99673.59
2023-02-06T03:40:26.030Z,99678.69
2023-02-06T03:42:27.410Z,99671.88
2023-02-06T03:44:28.959Z,99674.41
2023-02-06T03:46:30.342Z,99679.50
2023-02-06T03:48:31.733Z,99676.09
2023-02-06T03:50:33.076Z,99670.13
2023-02-06T03:52:34.372Z,99673.59
2023-02-06T03:54:35.659Z,99669.34
2023-02-06T03:56:37.003Z,99673.56
2023-02-06T03:58:38.298Z,99669.31
2023-02-06T04:00:39.599Z,99665.88
2023-02-06T04:02:40.959Z,99653.06
2023-02-06T04:04:42.287Z,99660.72
2023-02-06T04:06:43.575Z,99659.88
2023-02-06T04:08:44.866Z,99665.84
2023-02-06T04:10:46.199Z,99659.88
2023-02-06T04:12:47.548Z,99664.16
2023-02-06T04:14:48.889Z,99670.13
2023-02-06T04:16:50.298Z,99672.69
2023-02-06T04:18:51.742Z,99673.56
2023-02-06T04:20:53.062Z,99682.97
2023-02-06T04:22:54.373Z,99670.19
2023-02-06T04:24:55.679Z,99670.19
2023-02-06T04:26:56.970Z,99674.47
2023-02-06T04:28:58.439Z,99665.13
2023-02-06T04:30:59.895Z,99664.25
2023-02-06T04:33:01.325Z,99671.91
2023-02-06T04:35:02.651Z,99665.13
2023-02-06T04:37:03.952Z,99674.47
2023-02-06T04:39:05.250Z,99672.78
2023-02-06T04:41:06.602Z,99676.19
2023-02-06T04:43:07.898Z,99675.31
2023-02-06T04:45:09.351Z,99675.31
2023-02-06T04:47:10.692Z,99684.69
2023-02-06T04:49:11.984Z,99680.44
2023-02-06T04:51:13.282Z,99690.63
2023-02-06T04:53:14.580Z,99694.88
2023-02-06T04:55:15.972Z,99705.09
2023-02-06T04:57:17.262Z,99702.53
2023-02-06T04:59:18.596Z,99695.69
2023-02-06T05:01:19.940Z,99696.53
2023-02-06T05:03:23.495Z,99682.03
2023-02-06T05:05:24.836Z,99692.22
2023-02-06T05:07:26.159Z,99681.09
2023-02-06T05:09:27.477Z,99679.34
2023-02-06T05:11:28.798Z,99677.59
2023-02-06T05:13:30.204Z,99683.56
2023-02-06T05:15:31.533Z,99681.81
2023-02-06T05:17:32.875Z,99688.56
2023-02-06T05:19:34.231Z,99680.84
2023-02-06T05:21:35.533Z,99673.19
2023-02-06T05:23:36.820Z,99673.19
2023-02-06T05:25:38.241Z,99677.41
2023-02-06T05:27:39.603Z,99687.63
2023-02-06T05:29:40.896Z,99686.78
2023-02-06T05:31:42.229Z,99684.22
2023-02-06T05:33:43.544Z,99673.19
2023-02-06T05:35:44.843Z,99678.31
2023-02-06T05:37:46.206Z,99681.75
2023-02-06T05:39:47.545Z,99669.84
2023-02-06T05:41:48.882Z,99667.31
2023-02-06T05:43:50.337Z,99664.81
2023-02-06T05:45:51.641Z,99658.94
2023-02-06T05:47:54.427Z,99662.34
2023-02-06T05:49:55.719Z,99667.56
2023-02-06T05:51:57.081Z,99670.09
2023-02-06T05:53:58.419Z,99670.16
2023-02-06T05:55:59.734Z,99675.28
2023-02-06T05:58:01.032Z,99671.00
2023-02-06T06:00:02.460Z,99670.19
2023-02-06T06:02:03.824Z,99671.88
2023-02-06T06:04:05.181Z,99683.84
2023-02-06T06:06:06.571Z,99687.25
2023-02-06T06:08:07.867Z,99685.53
2023-02-06T06:10:09.170Z,99687.28
2023-02-06T06:12:10.538Z,99698.34
2023-02-06T06:14:11.868Z,99695.78
2023-02-06T06:16:13.250Z,99688.09
2023-02-06T06:18:14.596Z,99703.41
2023-02-06T06:20:15.894Z,99694.88
2023-02-06T06:22:17.243Z,99693.16
2023-02-06T06:24:18.531Z,99690.59
2023-02-06T06:26:19.834Z,99685.47
2023-02-06T06:28:21.206Z,99676.09
2023-02-06T06:30:22.535Z,99667.56
2023-02-06T06:32:23.864Z,99675.22
2023-02-06T06:34:26.213Z,99670.09
2023-02-06T06:36:27.585Z,99670.94
2023-02-06T06:38:28.922Z,99667.50
2023-02-06T06:40:30.213Z,99669.16
2023-02-06T06:42:31.528Z,99658.94
2023-02-06T06:44:32.884Z,99660.66
2023-02-06T06:46:34.176Z,99664.88
2023-02-06T06:48:37.066Z,99664.03
2023-02-06T06:50:38.406Z,99664.03
2023-02-06T06:52:39.755Z,99661.44
2023-02-06T06:54:41.098Z,99665.72
2023-02-06T06:56:42.431Z,99658.03
2023-02-06T06:58:43.757Z,99654.63
2023-02-06T07:00:45.177Z,99658.91
2023-02-06T07:02:46.621Z,99666.56
2023-02-06T07:04:47.954Z,99674.22
2023-02-06T07:06:49.252Z,99676.78
2023-02-06T07:08:50.579Z,99678.50
2023-02-06T07:10:51.948Z,99680.25
2023-02-06T07:12:56.746Z,99675.19
2023-02-06T07:14:58.045Z,99676.06
2023-02-06T07:17:00.877Z,99676.97
2023-02-06T07:19:02.179Z,99683.81
2023-02-06T07:21:04.167Z,99690.63
2023-02-06T07:23:05.553Z,99688.94
2023-02-06T07:25:06.884Z,99694.06
2023-02-06T07:27:08.177Z,99693.19
2023-02-06T07:29:09.525Z,99697.47
2023-02-06T07:31:10.926Z,99690.66
2023-02-06T07:33:12.257Z,99697.47
2023-02-06T07:35:15.296Z,99699.19
2023-02-06T07:37:16.592Z,99706.00
2023-02-06T07:39:17.932Z,99705.13
2023-02-06T07:41:19.232Z,99706.78
2023-02-06T07:43:20.614Z,99715.28
2023-02-06T07:45:21.931Z,99720.38
2023-02-06T07:47:23.223Z,99717.81
2023-02-06T07:49:24.523Z,99713.53
2023-02-06T07:51:25.895Z,99712.66
2023-02-06T07:53:27.409Z,99714.31
2023-02-06T07:55:28.802Z,99710.88
2023-02-06T07:57:30.131Z,99707.44
2023-02-06T07:59:31.497Z,99702.31
2023-02-06T08:01:32.841Z,99704.03
2023-02-06T08:03:34.193Z,99699.75
2023-02-06T08:05:35.958Z,99705.72
2023-02-06T08:07:37.437Z,99687.84
2023-02-06T08:09:38.742Z,99694.63
2023-02-06T08:11:40.233Z,99699.72
2023-02-06T08:13:41.561Z,99583.56
2023-02-06T08:15:42.847Z,99701.41
2023-02-06T08:17:44.143Z,99706.50
2023-02-06T08:19:45.417Z,99707.38
2023-02-06T08:21:46.739Z,99708.22
2023-02-06T08:23:48.155Z,99703.13
2023-02-06T08:25:49.456Z,99705.69
2023-02-06T08:27:50.796Z,99715.06
2023-02-06T08:29:52.290Z,99701.50
2023-02-06T08:31:53.665Z,99705.78
2023-02-06T08:33:55.070Z,99705.00
2023-02-06T08:35:56.381Z,99704.16
2023-02-06T08:37:57.686Z,99705.91
2023-02-06T08:39:59.067Z,99710.19
2023-02-06T08:42:00.355Z,99707.66
2023-02-06T08:44:02.215Z,99700.88
2023-02-06T08:46:03.574Z,99700.88
2023-02-06T08:48:04.883Z,99700.88
2023-02-06T08:50:06.239Z,99695.78
2023-02-06T08:52:07.524Z,99688.94
2023-02-06T08:54:08.900Z,99684.69
2023-02-06T08:56:10.188Z,99679.59
2023-02-06T08:58:11.609Z,99675.31
2023-02-06T09:00:12.921Z,99664.22
2023-02-06T09:02:14.370Z,99667.63
2023-02-06T09:04:15.739Z,99668.47
2023-02-06T09:06:17.055Z,99664.19
2023-02-06T09:08:18.685Z,99663.34
2023-02-06T09:10:27.492Z,99665.88
2023-02-06T09:12:29.508Z,99665.00
2023-02-06T09:14:30.811Z,99662.44
2023-02-06T09:16:33.529Z,99669.19
2023-02-06T09:18:35.810Z,99670.88
2023-02-06T09:20:37.112Z,99670.88
2023-02-06T09:22:38.408Z,99662.31
2023-02-06T09:24:39.873Z,99669.16
2023-02-06T09:26:58.018Z,99667.41
2023-02-06T09:29:00.191Z,99663.16
2023-02-06T09:31:02.293Z,99669.09
2023-02-06T09:33:03.632Z,99672.50
2023-02-06T09:35:05.012Z,99665.69
2023-02-06T09:37:06.382Z,99677.63
2023-02-06T09:39:07.751Z,99664.81
2023-02-06T09:41:09.629Z,99670.78
2023-02-06T09:43:10.923Z,99677.59
2023-02-06T09:45:12.250Z,99677.59
2023-02-06T09:47:13.716Z,99681.03
2023-02-06T09:49:15.007Z,99680.22
2023-02-06T09:51:16.349Z,99698.97
2023-02-06T09:53:17.655Z,99698.97
2023-02-06T09:55:18.986Z,99686.28
2023-02-06T09:57:20.322Z,99693.97
2023-02-06T09:59:21.633Z,99691.44
2023-02-06T10:01:22.979Z,99690.59
2023-02-06T10:03:24.409Z,99684.63
2023-02-06T10:05:25.834Z,99684.63
2023-02-06T10:07:27.273Z,99688.91
2023-02-06T10:09:28.564Z,99688.91
2023-02-06T10:11:29.863Z,99680.41
2023-02-06T10:13:31.258Z,99683.81
2023-02-06T10:15:32.604Z,99681.22
2023-02-06T10:17:33.904Z,99686.34
2023-02-06T10:19:35.200Z,99677.84
2023-02-06T10:21:37.149Z,99670.16
2023-02-06T10:23:38.466Z,99676.97
2023-02-06T10:25:39.794Z,99675.22
2023-02-06T10:27:41.129Z,99676.06
2023-02-06T10:29:42.530Z,99677.75
2023-02-06T10:31:45.082Z,99675.19
2023-02-06T10:33:46.440Z,99669.19
2023-02-06T10:35:47.815Z,99673.41
2023-02-06T10:37:49.107Z,99664.00
2023-02-06T10:39:50.540Z,99667.41
2023-02-06T10:41:51.836Z,99667.41
2023-02-06T10:43:53.179Z,99681.88
2023-02-06T10:45:54.478Z,99694.63
2023-02-06T10:47:55.805Z,99698.00
2023-02-06T10:49:57.103Z,99698.84
2023-02-06T10:51:58.611Z,99685.22
2023-02-06T10:53:59.909Z,99679.25
2023-02-06T10:56:02.212Z,99679.25
2023-02-06T10:58:03.615Z,99662.22
2023-02-06T11:00:05.253Z,99645.19
2023-02-06T11:02:06.707Z,99654.56
2023-02-06T11:04:08.607Z,99677.53
2023-02-06T11:06:09.899Z,99686.09
2023-02-06T11:08:11.265Z,99670.78
2023-02-06T11:10:12.591Z,99658.88
2023-02-06T11:12:14.004Z,99659.78
2023-02-06T11:14:15.365Z,99658.97
2023-02-06T11:16:16.745Z,99655.59
2023-02-06T11:18:18.197Z,99658.19
2023-02-06T11:20:21.763Z,99653.94
2023-02-06T11:22:23.068Z,99653.09
2023-02-06T11:24:24.502Z,99643.72
2023-02-06T11:26:25.864Z,99636.06
2023-02-06T11:28:27.178Z,99632.63
2023-02-06T11:30:29.527Z,99624.97
2023-02-06T11:32:32.064Z,99636.91
2023-02-06T11:34:33.469Z,99638.63
2023-02-06T11:36:34.765Z,99642.03
2023-02-06T11:38:36.070Z,99637.75
2023-02-06T11:40:37.603Z,99642.00
2023-02-06T11:42:39.111Z,99650.50
2023-02-06T11:44:40.475Z,99636.00
2023-02-06T11:46:41.896Z,99641.09
2023-02-06T11:48:43.361Z,99634.25
2023-02-06T11:50:44.686Z,99640.19
2023-02-06T11:52:47.005Z,99645.28
2023-02-06T11:54:48.495Z,99645.28
2023-02-06T11:56:49.807Z,99648.66
2023-02-06T11:58:51.187Z,99658.00
2023-02-06T12:00:52.531Z,99655.44
2023-02-06T12:02:53.868Z,99661.41
2023-02-06T12:04:55.283Z,99658.81
2023-02-06T12:06:56.630Z,99657.97
2023-02-06T12:08:58.096Z,99654.56
2023-02-06T12:10:59.399Z,99654.56
2023-02-06T12:13:00.696Z,99652.00
2023-02-06T12:15:23.612Z,99649.44
2023-02-06T12:17:26.241Z,99649.44
2023-02-06T12:19:31.654Z,99646.03
2023-02-06T12:21:32.963Z,99649.47
2023-02-06T12:23:34.300Z,99655.41
2023-02-06T12:25:36.040Z,99644.34
2023-02-06T12:27:39.249Z,99644.38
2023-02-06T12:29:41.752Z,99639.31
2023-02-06T12:31:43.366Z,99642.75
2023-02-06T12:33:45.743Z,99631.69
2023-02-06T12:35:47.727Z,99625.78
2023-02-06T12:37:49.088Z,99630.91
2023-02-06T12:39:50.388Z,99627.50
2023-02-06T12:41:51.692Z,99620.69
2023-02-06T12:43:56.079Z,99620.69
2023-02-06T12:45:57.531Z,99618.16
2023-02-06T12:47:58.933Z,99617.28
2023-02-06T12:50:00.272Z,99619.03
2023-02-06T12:52:02.778Z,99612.19
2023-02-06T12:54:04.084Z,99617.28
2023-02-06T12:56:08.292Z,99620.69
2023-02-06T12:58:09.615Z,99619.88
2023-02-06T13:00:12.829Z,99614.75
2023-02-06T13:02:14.233Z,99614.75
2023-02-06T13:04:15.611Z,99615.56
2023-02-06T13:06:17.036Z,99618.06
2023-02-06T13:08:18.323Z,99621.44
2023-02-06T13:10:19.634Z,99615.47
2023-02-06T13:12:21.159Z,99618.81
2023-02-06T13:14:22.604Z,99620.50
2023-02-06T13:16:23.969Z,99623.00
2023-02-06T13:18:25.349Z,99615.31
2023-02-06T13:20:26.662Z,99628.03
2023-02-06T13:22:28.007Z,99628.03
2023-02-06T13:24:29.298Z,99622.88
2023-02-06T13:26:30.632Z,99622.06
2023-02-06T13:28:31.964Z,99632.31
2023-02-06T13:30:33.296Z,99627.19
2023-02-06T13:32:39.909Z,99631.47
2023-02-06T13:34:42.051Z,99628.91
2023-02-06T13:36:43.367Z,99633.19
2023-02-06T13:38:44.674Z,99634.91
2023-02-06T13:40:46.015Z,99632.38
2023-02-06T13:42:49.043Z,99635.81
2023-02-06T13:44:50.351Z,99631.59
2023-02-06T13:46:51.685Z,99636.75
2023-02-06T13:48:52.992Z,99632.50
2023-02-06T13:50:54.293Z,99626.56
2023-02-06T13:52:55.664Z,99631.69
2023-02-06T13:54:56.999Z,99627.44
2023-02-06T13:56:58.306Z,99628.34
2023-02-06T13:59:06.017Z,99638.56
2023-02-06T14:01:07.579Z,99625.75
2023-02-06T14:03:08.942Z,99635.25
2023-02-06T14:05:10.765Z,99641.25
2023-02-06T14:07:12.097Z,99634.38
2023-02-06T14:09:13.408Z,99631.81
2023-02-06T14:11:33.309Z,99636.94
2023-02-06T14:13:34.676Z,99613.81
2023-02-06T14:15:36.710Z,99620.63
2023-02-06T14:17:38.508Z,99613.75
2023-02-06T14:19:39.867Z,99625.56
2023-02-06T14:21:41.189Z,99627.13
2023-02-06T14:23:43.492Z,99620.44
2023-02-06T14:25:46.048Z,99626.41
2023-02-06T14:27:50.175Z,99632.28
2023-02-06T14:29:51.507Z,99636.75
2023-02-06T14:31:52.878Z,99647.69
2023-02-06T14:33:54.311Z,99644.19
2023-02-06T14:35:55.678Z,99645.91
2023-02-06T14:37:57.209Z,99647.97
2023-02-06T14:40:04.549Z,99660.84
2023-02-06T14:42:06.021Z,99665.94
2023-02-06T14:44:07.319Z,99669.34
2023-02-06T14:46:08.955Z,99670.16
2023-02-06T14:48:10.401Z,99668.47
2023-02-06T14:50:11.796Z,99682.94
2023-02-06T14:52:13.094Z,99686.34
2023-02-06T14:54:14.395Z,99689.75
2023-02-06T14:56:15.812Z,99692.31
2023-02-06T14:58:17.157Z,99699.97
2023-02-06T15:00:18.520Z,99700.81
2023-02-06T15:02:19.835Z,99699.13
2023-02-06T15:04:24.344Z,99693.16
2023-02-06T15:06:25.652Z,99697.44
2023-02-06T15:08:26.975Z,99700.84
2023-02-06T15:10:28.679Z,99701.69
2023-02-06T15:12:30.251Z,99709.34
2023-02-06T15:14:31.593Z,99718.75
2023-02-06T15:16:33.097Z,99720.47
2023-02-06T15:18:37.204Z,99725.63
2023-02-06T15:20:40.207Z,99730.75
2023-02-06T15:22:41.553Z,99733.28
2023-02-06T15:24:42.924Z,99738.44
2023-02-06T15:26:44.245Z,99735.88
2023-02-06T15:28:45.562Z,99741.91
2023-02-06T15:30:53.020Z,99741.88
2023-02-06T15:32:54.377Z,99756.41
2023-02-06T15:34:55.800Z,99758.13
2023-02-06T15:36:57.095Z,99760.66
2023-02-06T15:38:58.408Z,99758.09
2023-02-06T15:40:59.741Z,99758.97
2023-02-06T15:43:01.077Z,99745.28
2023-02-06T15:45:02.396Z,99762.19
2023-02-06T15:47:03.763Z,99756.97
2023-02-06T15:49:06.929Z,99761.91
2023-02-06T15:51:08.302Z,99761.91
2023-02-06T15:53:09.609Z,99765.44
2023-02-06T15:55:13.961Z,99760.28
2023-02-06T15:57:15.270Z,99768.91
2023-02-06T15:59:16.603Z,99772.31
2023-02-06T16:01:17.994Z,99770.75
2023-02-06T16:03:19.353Z,99775.13
2023-02-06T16:05:23.771Z,99777.75
2023-02-06T16:07:25.115Z,99774.28
2023-02-06T16:09:26.474Z,99778.56
2023-02-06T16:11:46.304Z,99781.94
2023-02-06T16:13:47.607Z,99788.78
2023-02-06T16:15:48.921Z,99784.53
2023-02-06T16:17:50.220Z,99796.50
2023-02-06T16:19:52.069Z,99787.09
2023-02-06T16:21:53.368Z,99787.13
2023-02-06T16:23:54.718Z,99791.38
2023-02-06T16:25:56.057Z,99789.69
2023-02-06T16:27:57.375Z,99787.09
2023-02-06T16:29:58.777Z,99792.22
2023-02-06T16:32:00.194Z,99785.38
2023-02-06T16:34:03.320Z,99793.09
2023-02-06T16:36:04.738Z,99793.94
2023-02-06T16:38:06.101Z,99805.91
2023-02-06T16:40:07.435Z,99811.03
2023-02-06T16:42:09.799Z,99810.19
2023-02-06T16:44:11.132Z,99811.91
2023-02-06T16:46:12.559Z,99815.34
2023-02-06T16:48:13.887Z,99813.59
2023-02-06T16:50:15.243Z,99821.31
2023-02-06T16:52:17.564Z,99823.00
2023-02-06T16:54:20.193Z,99806.78
2023-02-06T16:56:27.708Z,99803.38
2023-02-06T16:58:31.778Z,99805.94
2023-02-06T17:00:36.388Z,99809.34
2023-02-06T17:02:38.336Z,99816.19
2023-02-06T17:04:39.734Z,99818.75
2023-02-06T17:06:41.059Z,99821.28
2023-02-06T17:08:42.362Z,99828.97
2023-02-06T17:10:43.711Z,99819.59
2023-02-06T17:12:45.230Z,99830.69
2023-02-06T17:14:47.180Z,99828.13
2023-02-06T17:16:48.523Z,99825.53
2023-02-06T17:18:49.887Z,99820.41
2023-02-06T17:21:00.973Z,99818.66
2023-02-06T17:23:02.272Z,99821.22
2023-02-06T17:25:06.340Z,99815.25
2023-02-06T17:27:07.665Z,99821.25
2023-02-06T17:29:08.968Z,99824.69
2023-02-06T17:31:10.388Z,99821.25
2023-02-06T17:33:11.762Z,99830.66
2023-02-06T17:35:13.206Z,99832.41
2023-02-06T17:37:20.747Z,99834.09
2023-02-06T17:39:22.184Z,99837.53
2023-02-06T17:41:23.498Z,99840.91
2023-02-06T17:43:24.889Z,99836.66
2023-02-06T17:45:26.193Z,99840.94
2023-02-06T17:47:27.519Z,99839.22
2023-02-06T17:49:28.856Z,99833.25
2023-02-06T17:51:30.192Z,99830.69
2023-02-06T17:53:31.488Z,99835.78
2023-02-06T17:55:32.779Z,99839.25
2023-02-06T17:57:34.236Z,99839.25
2023-02-06T17:59:35.569Z,99838.34
2023-02-06T18:01:36.998Z,99848.63
2023-02-06T18:03:41.406Z,99861.44
2023-02-06T18:05:42.711Z,99863.19
2023-02-06T18:07:44.007Z,99864.03
2023-02-06T18:09:45.354Z,99880.25
2023-02-06T18:11:46.695Z,99850.34
2023-02-06T18:13:48.032Z,99847.81
2023-02-06T18:15:49.794Z,99851.16
2023-02-06T18:17:51.747Z,99852.84
2023-02-06T18:19:53.143Z,99851.09
2023-02-06T18:21:54.446Z,99863.03
2023-02-06T18:23:55.772Z,99856.13
2023-02-06T18:25:57.067Z,99851.88
2023-02-06T18:27:58.480Z,99854.41
2023-02-06T18:30:04.355Z,99850.13
2023-02-06T18:32:05.746Z,99862.09
2023-02-06T18:34:07.952Z,99867.22
2023-02-06T18:36:09.423Z,99881.75
2023-02-06T18:38:11.031Z,99882.66
2023-02-06T18:40:12.367Z,99889.38
2023-02-06T18:42:32.624Z,99886.97
2023-02-06T18:44:41.627Z,99879.31
2023-02-06T18:46:42.983Z,99863.91
2023-02-06T18:48:44.322Z,99862.25
2023-02-06T18:50:52.231Z,99855.44
2023-02-06T18:52:59.532Z,99862.31
2023-02-06T18:55:00.837Z,99858.03
2023-02-06T18:57:02.264Z,99857.19
2023-02-06T18:59:03.990Z,99851.22
2023-02-06T19:01:05.319Z,99846.94
2023-02-06T19:03:09.712Z,99846.94
2023-02-06T19:05:11.032Z,99845.19
2023-02-06T19:07:12.399Z,99846.06
2023-02-06T19:09:13.719Z,99844.34
2023-02-06T19:11:15.021Z,99854.59
2023-02-06T19:13:19.437Z,99851.19
2023-02-06T19:15:23.699Z,99853.75
2023-02-06T19:17:25.036Z,99852.03
2023-02-06T19:19:26.350Z,99852.88
2023-02-06T19:21:28.204Z,99866.56
2023-02-06T19:23:29.632Z,99866.59
2023-02-06T19:25:30.956Z,99870.84
2023-02-06T19:27:32.303Z,99865.72
2023-02-06T19:29:36.106Z,99863.16
2023-02-06T19:31:40.549Z,99866.56
2023-02-06T19:33:41.965Z,99874.25
2023-02-06T19:35:44.220Z,99876.81
2023-02-06T19:37:45.560Z,99872.53
2023-02-06T19:39:46.976Z,99883.66
2023-02-06T19:41:48.280Z,99883.69
2023-02-06T19:43:49.630Z,99889.63
2023-02-06T19:45:50.984Z,99895.63
2023-02-06T19:47:52.326Z,99888.78
2023-02-06T19:49:53.675Z,99892.19
2023-02-06T19:51:54.980Z,99894.75
2023-02-06T19:53:56.370Z,99908.41
2023-02-06T19:55:57.666Z,99905.00
2023-02-06T19:57:59.020Z,99912.69
2023-02-06T20:00:00.360Z,99916.13
2023-02-06T20:02:02.379Z,99928.06
2023-02-06T20:04:03.717Z,99930.66
2023-02-06T20:06:05.350Z,99930.56
2023-02-06T20:08:06.757Z,99931.38
2023-02-06T20:10:08.063Z,99927.13
2023-02-06T20:12:09.372Z,99926.28
2023-02-06T20:14:10.852Z,99929.72
2023-02-06T20:16:12.240Z,99934.84
2023-02-06T20:18:13.611Z,99934.00
2023-02-06T20:20:14.916Z,99940.84
2023-02-06T20:22:16.246Z,99945.09
2023-02-06T20:24:18.632Z,99955.38
2023-02-06T20:26:22.988Z,99969.06
2023-02-06T20:28:24.412Z,99969.06
2023-02-06T20:30:26.400Z,99980.16
2023-02-06T20:32:27.875Z,99992.09
2023-02-06T20:34:29.646Z,99998.09
2023-02-06T20:36:31.169Z,100011.66
2023-02-06T20:38:32.533Z,100014.09
2023-02-06T20:40:38.715Z,100021.69
2023-02-06T20:42:44.493Z,100020.72
2023-02-06T20:44:48.804Z,100023.56
2023-02-06T20:46:50.217Z,100027.94
2023-02-06T20:48:51.545Z,100024.56
2023-02-06T20:50:52.893Z,100023.72
2023-02-06T20:52:54.193Z,100021.19
2023-02-06T20:54:55.504Z,100022.03
2023-02-06T20:57:00.478Z,100010.94
2023-02-06T20:59:06.050Z,100016.91
2023-02-06T21:01:07.365Z,100016.81
2023-02-06T21:03:08.715Z,100015.03
2023-02-06T21:05:10.053Z,100015.88
2023-02-06T21:07:11.368Z,100012.56
2023-02-06T21:09:12.706Z,100017.75
2023-02-06T21:11:14.006Z,100009.25
2023-02-06T21:13:15.346Z,100004.09
2023-02-06T21:15:16.645Z,100006.72
2023-02-06T21:17:17.960Z,99997.31
2023-02-06T21:19:19.312Z,99988.75
2023-02-06T21:21:20.628Z,99995.59
2023-02-06T21:23:21.961Z,99991.31
2023-02-06T21:25:23.299Z,99984.47
2023-02-06T21:27:24.613Z,99976.78
2023-02-06T21:29:25.914Z,99978.47
2023-02-06T21:31:33.687Z,99975.06
2023-02-06T21:33:36.680Z,99966.53
2023-02-06T21:35:40.272Z,99973.38
2023-02-06T21:37:41.588Z,99972.47
2023-02-06T21:39:42.975Z,99968.22
2023-02-06T21:41:44.280Z,99959.66
2023-02-06T21:43:45.734Z,99956.19
2023-02-06T21:45:47.245Z,99970.72
2023-02-06T21:47:48.616Z,99960.47
2023-02-06T21:49:49.910Z,99963.81
2023-02-06T21:51:51.323Z,99971.50
2023-02-06T21:53:52.667Z,99987.22
2023-02-06T21:55:54.109Z,99979.41
2023-02-06T21:57:55.434Z,99967.22
2023-02-06T21:59:56.885Z,99963.22
2023-02-06T22:01:58.247Z,99970.16
2023-02-06T22:03:59.697Z,99963.41
2023-02-06T22:06:01.032Z,99971.13
2023-02-06T22:08:02.624Z,99972.03
2023-02-06T22:10:03.922Z,99968.69
2023-02-06T22:12:07.131Z,99963.66
2023-02-06T22:14:08.508Z,99961.13
2023-02-06T22:16:09.836Z,99959.47
2023-02-06T22:18:11.161Z,99954.38
2023-02-06T22:20:14.275Z,99956.97
2023-02-06T22:22:16.731Z,99948.41
2023-02-06T22:24:18.029Z,99937.31
2023-02-06T22:26:19.360Z,99942.44
2023-02-06T22:28:20.730Z,99957.81
2023-02-06T22:30:22.036Z,99956.97
2023-02-06T22:32:23.452Z,99961.22
2023-02-06T22:34:24.762Z,99949.22
2023-02-06T22:36:26.091Z,99958.59
2023-02-06T22:38:27.416Z,99956.91
2023-02-06T22:40:28.716Z,99965.41
2023-02-06T22:42:30.087Z,99965.41
2023-02-06T22:44:31.393Z,99956.00
2023-02-06T22:46:32.757Z,99956.78
2023-02-06T22:48:34.259Z,99962.69
2023-02-06T22:50:35.552Z,99951.59
2023-02-06T22:52:55.620Z,99958.38
2023-02-06T22:54:56.936Z,99957.50
2023-02-06T22:56:58.299Z,99957.47
2023-02-06T22:58:59.651Z,99967.69
2023-02-06T23:01:01.020Z,99961.72
2023-02-06T23:03:02.840Z,99964.25
2023-02-06T23:05:04.175Z,99955.72
2023-02-06T23:07:05.598Z,99956.56
2023-02-06T23:09:06.938Z,99953.97
2023-02-06T23:11:08.263Z,99957.34
2023-02-06T23:13:09.575Z,99954.78
2023-02-06T23:15:10.876Z,99955.66
2023-02-06T23:17:12.436Z,99954.75
2023-02-06T23:19:13.773Z,99955.59
2023-02-06T23:21:15.103Z,99957.28
2023-02-06T23:23:16.408Z,99966.66
2023-02-06T23:25:17.717Z,99972.59
2023-02-06T23:27:20.939Z,99969.22
2023-02-06T23:29:22.244Z,99974.28
2023-02-06T23:31:23.991Z,99974.31
2023-02-06T23:33:25.346Z,99970.06
2023-02-06T23:35:26.652Z,99967.53
2023-02-06T23:37:27.984Z,99973.53
2023-02-06T23:39:29.286Z,99978.66
2023-02-06T23:41:30.623Z,99970.16
2023-02-06T23:43:32.031Z,99968.53
2023-02-06T23:45:33.352Z,99971.97
2023-02-06T23:47:34.707Z,99972.00
2023-02-06T23:49:36.106Z,99974.56